createdAt,value
2022-09-10T00:02:11.501Z,17.85
2022-09-10T00:04:39.176Z,17.87
2022-09-10T00:07:06.800Z,17.87
2022-09-10T00:09:34.621Z,17.84
2022-09-10T00:12:02.412Z,17.86
2022-09-10T00:14:29.989Z,17.87
2022-09-10T00:16:58.973Z,17.92
2022-09-10T00:19:26.599Z,17.95
2022-09-10T00:21:54.242Z,17.96
2022-09-10T00:24:22.483Z,17.97
2022-09-10T00:26:50.095Z,18.01
2022-09-10T00:29:18.694Z,18.05
2022-09-10T00:31:46.475Z,18.09
2022-09-10T00:34:15.602Z,18.12
2022-09-10T00:36:44.913Z,18.10
2022-09-10T00:39:15.697Z,18.09
2022-09-10T00:41:46.536Z,18.00
2022-09-10T00:44:56.689Z,17.98
2022-09-10T00:47:29.830Z,17.94
2022-09-10T00:50:06.035Z,17.88
2022-09-10T00:52:39.407Z,17.94
2022-09-10T00:55:09.032Z,17.98
2022-09-10T00:57:37.145Z,18.09
2022-09-10T01:00:11.822Z,18.13
2022-09-10T01:02:39.700Z,18.15
2022-09-10T01:05:10.733Z,18.21
2022-09-10T01:07:39.020Z,18.26
2022-09-10T01:10:12.611Z,18.19
2022-09-10T01:12:57.855Z,18.19
2022-09-10T01:15:36.358Z,18.17
2022-09-10T01:18:16.017Z,18.19
2022-09-10T01:20:59.428Z,18.17
2022-09-10T01:24:00.899Z,18.19
2022-09-10T01:26:52.134Z,18.18
2022-09-10T01:29:25.358Z,18.13
2022-09-10T01:31:57.820Z,18.06
2022-09-10T01:34:30.479Z,17.99
2022-09-10T01:37:05.429Z,17.96
2022-09-10T01:39:34.018Z,17.90
2022-09-10T01:42:01.729Z,17.93
2022-09-10T01:44:49.568Z,17.86
2022-09-10T01:47:27.826Z,17.83
2022-09-10T01:50:10.282Z,17.81
2022-09-10T01:52:47.799Z,17.87
2022-09-10T01:55:31.651Z,17.95
2022-09-10T01:58:14.101Z,17.97
2022-09-10T02:00:49.949Z,18.07
2022-09-10T02:03:21.570Z,18.07
2022-09-10T02:05:53.829Z,18.09
2022-09-10T02:08:25.383Z,18.12
2022-09-10T02:10:56.523Z,17.98
2022-09-10T02:13:25.139Z,17.96
2022-09-10T02:15:54.636Z,17.93
2022-09-10T02:18:23.033Z,17.89
2022-09-10T02:20:53.112Z,17.81
2022-09-10T02:23:26.035Z,17.78
2022-09-10T02:25:54.066Z,17.77
2022-09-10T02:28:21.714Z,17.75
2022-09-10T02:30:49.337Z,17.81
2022-09-10T02:33:18.408Z,17.80
2022-09-10T02:35:47.727Z,17.73
2022-09-10T02:38:16.454Z,17.78
2022-09-10T02:40:44.154Z,17.77
2022-09-10T02:43:11.721Z,17.73
2022-09-10T02:45:40.087Z,17.70
2022-09-10T02:48:07.967Z,17.68
2022-09-10T02:50:37.630Z,17.63
2022-09-10T02:53:05.337Z,17.63
2022-09-10T02:55:32.984Z,17.58
2022-09-10T02:58:00.541Z,17.59
2022-09-10T03:00:28.144Z,17.61
2022-09-10T03:03:00.873Z,17.65
2022-09-10T03:05:30.553Z,17.72
2022-09-10T03:08:00.316Z,17.74
2022-09-10T03:10:28.276Z,17.68
2022-09-10T03:12:55.850Z,17.73
2022-09-10T03:15:23.502Z,17.67
2022-09-10T03:17:51.310Z,17.62
2022-09-10T03:20:19.178Z,17.54
2022-09-10T03:22:47.605Z,17.54
2022-09-10T03:25:17.158Z,17.58
2022-09-10T03:27:44.725Z,17.54
2022-09-10T03:30:13.056Z,17.56
2022-09-10T03:32:40.868Z,17.54
2022-09-10T03:35:10.088Z,17.47
2022-09-10T03:37:37.726Z,17.48
2022-09-10T03:40:06.985Z,17.48
2022-09-10T03:42:36.291Z,17.53
2022-09-10T03:45:03.896Z,17.52
2022-09-10T03:47:31.509Z,17.46
2022-09-10T03:49:59.915Z,17.53
2022-09-10T03:52:27.669Z,17.50
2022-09-10T03:54:55.265Z,17.48
2022-09-10T03:57:23.277Z,17.54
2022-09-10T03:59:52.583Z,17.57
2022-09-10T04:02:20.252Z,17.55
2022-09-10T04:04:47.915Z,17.56
2022-09-10T04:07:15.515Z,17.49
2022-09-10T04:09:43.132Z,17.52
2022-09-10T04:12:10.791Z,17.45
2022-09-10T04:14:38.424Z,17.43
2022-09-10T04:17:07.341Z,17.46
2022-09-10T04:19:35.364Z,17.53
2022-09-10T04:22:03.027Z,17.50
2022-09-10T04:24:30.577Z,17.51
2022-09-10T04:26:59.026Z,17.48
2022-09-10T04:29:26.641Z,17.42
2022-09-10T04:31:55.207Z,17.40
2022-09-10T04:34:24.252Z,17.44
2022-09-10T04:36:53.504Z,17.45
2022-09-10T04:39:21.250Z,17.46
2022-09-10T04:41:48.834Z,17.47
2022-09-10T04:44:20.087Z,17.46
2022-09-10T04:46:48.263Z,17.50
2022-09-10T04:49:15.827Z,17.55
2022-09-10T04:51:44.753Z,17.53
2022-09-10T04:54:14.414Z,17.52
2022-09-10T04:56:42.109Z,17.50
2022-09-10T04:59:10.766Z,17.48
2022-09-10T05:01:38.398Z,17.53
2022-09-10T05:04:06.118Z,17.54
2022-09-10T05:06:33.699Z,17.50
2022-09-10T05:09:03.371Z,17.48
2022-09-10T05:11:31.343Z,17.45
2022-09-10T05:13:59.064Z,17.49
2022-09-10T05:16:26.641Z,17.46
2022-09-10T05:18:54.370Z,17.49
2022-09-10T05:21:22.637Z,17.47
2022-09-10T05:23:50.207Z,17.43
2022-09-10T05:26:19.119Z,17.40
2022-09-10T05:28:47.663Z,17.44
2022-09-10T05:31:16.509Z,17.39
2022-09-10T05:33:44.241Z,17.41
2022-09-10T05:36:11.791Z,17.43
2022-09-10T05:38:40.301Z,17.43
2022-09-10T05:41:10.392Z,17.41
2022-09-10T05:43:40.278Z,17.39
2022-09-10T05:46:08.139Z,17.41
2022-09-10T05:48:39.634Z,17.33
2022-09-10T05:51:09.303Z,17.32
2022-09-10T05:53:38.156Z,17.31
2022-09-10T05:56:07.276Z,17.32
2022-09-10T05:58:34.925Z,17.33
2022-09-10T06:01:03.876Z,17.29
2022-09-10T06:03:31.581Z,17.34
2022-09-10T06:05:59.154Z,17.35
2022-09-10T06:08:26.740Z,17.33
2022-09-10T06:10:58.493Z,17.35
2022-09-10T06:13:26.286Z,17.36
2022-09-10T06:15:54.316Z,17.37
2022-09-10T06:18:23.282Z,17.39
2022-09-10T06:20:51.020Z,17.39
2022-09-10T06:23:18.886Z,17.44
2022-09-10T06:25:48.332Z,17.48
2022-09-10T06:28:16.022Z,17.41
2022-09-10T06:30:45.824Z,17.42
2022-09-10T06:33:13.995Z,17.43
2022-09-10T06:35:42.998Z,17.44
2022-09-10T06:38:10.596Z,17.43
2022-09-10T06:40:38.165Z,17.52
2022-09-10T06:43:06.036Z,17.56
2022-09-10T06:45:33.679Z,17.59
2022-09-10T06:50:54.942Z,17.57
2022-09-10T06:53:23.735Z,17.60
2022-09-10T06:55:52.306Z,17.67
2022-09-10T06:58:21.741Z,17.72
2022-09-10T07:00:49.955Z,17.76
2022-09-10T07:03:18.478Z,17.85
2022-09-10T07:05:47.231Z,17.91
2022-09-10T07:08:17.706Z,17.96
2022-09-10T07:10:46.424Z,18.01
2022-09-10T07:13:14.536Z,17.93
2022-09-10T07:15:46.377Z,17.87
2022-09-10T07:18:15.331Z,17.87
2022-09-10T07:20:43.348Z,17.93
2022-09-10T07:23:12.893Z,17.99
2022-09-10T07:25:42.658Z,17.95
2022-09-10T07:28:13.548Z,18.00
2022-09-10T07:30:41.890Z,18.05
2022-09-10T07:33:11.091Z,18.01
2022-09-10T07:35:39.495Z,18.05
2022-09-10T07:38:07.949Z,18.06
2022-09-10T07:40:35.928Z,18.11
2022-09-10T07:43:04.868Z,18.16
2022-09-10T07:45:32.542Z,18.22
2022-09-10T07:48:00.452Z,18.20
2022-09-10T07:50:28.757Z,18.25
2022-09-10T07:52:56.335Z,18.40
2022-09-10T07:55:24.288Z,18.51
2022-09-10T07:57:51.864Z,18.50
2022-09-10T08:00:21.039Z,18.54
2022-09-10T08:02:48.805Z,18.56
2022-09-10T08:05:16.861Z,18.61
2022-09-10T08:07:44.457Z,18.59
2022-09-10T08:10:13.382Z,18.59
2022-09-10T08:12:42.024Z,18.61
2022-09-10T08:15:11.097Z,18.68
2022-09-10T08:17:40.086Z,18.76
2022-09-10T08:20:09.853Z,18.85
2022-09-10T08:22:37.431Z,18.86
2022-09-10T08:25:05.863Z,18.85
2022-09-10T08:27:34.261Z,18.83
2022-09-10T08:30:01.815Z,18.83
2022-09-10T08:32:29.457Z,18.86
2022-09-10T08:34:58.343Z,18.88
2022-09-10T08:37:25.993Z,18.99
2022-09-10T08:39:53.733Z,19.08
2022-09-10T08:42:26.864Z,19.12
2022-09-10T08:45:00.212Z,19.11
2022-09-10T08:47:33.349Z,19.12
2022-09-10T08:50:11.101Z,19.19
2022-09-10T08:52:44.973Z,19.18
2022-09-10T08:55:24.387Z,19.20
2022-09-10T08:57:57.009Z,19.21
2022-09-10T09:00:27.102Z,19.22
2022-09-10T09:02:59.851Z,19.29
2022-09-10T09:05:31.665Z,19.30
2022-09-10T09:07:59.593Z,19.21
2022-09-10T09:10:34.815Z,19.14
2022-09-10T09:13:22.890Z,19.14
2022-09-10T09:15:58.229Z,19.23
2022-09-10T09:18:35.841Z,19.22
2022-09-10T09:21:16.575Z,19.27
2022-09-10T09:24:12.269Z,19.34
2022-09-10T09:26:46.176Z,19.37
2022-09-10T09:29:18.006Z,19.33
2022-09-10T09:31:49.982Z,19.33
2022-09-10T09:34:21.944Z,19.41
2022-09-10T09:36:54.885Z,19.39
2022-09-10T09:39:26.327Z,19.41
2022-09-10T09:42:03.223Z,19.37
2022-09-10T09:44:38.743Z,19.33
2022-09-10T09:47:06.386Z,19.37
2022-09-10T09:49:34.072Z,19.37
2022-09-10T09:52:15.084Z,19.40
2022-09-10T09:55:13.382Z,19.36
2022-09-10T09:57:36.273Z,19.29
2022-09-10T10:00:35.984Z,19.31
2022-09-10T10:03:14.077Z,19.32
2022-09-10T10:05:42.358Z,19.34
2022-09-10T10:08:30.239Z,19.29
2022-09-10T10:10:58.502Z,19.31
2022-09-10T10:13:26.205Z,19.32
2022-09-10T10:15:54.091Z,19.32
2022-09-10T10:18:32.674Z,19.37
2022-09-10T10:21:31.009Z,19.36
2022-09-10T10:24:00.880Z,19.41
2022-09-10T10:26:33.640Z,19.41
2022-09-10T10:29:04.095Z,19.44
2022-09-10T10:31:41.277Z,19.48
2022-09-10T10:34:30.850Z,19.49
2022-09-10T10:37:08.370Z,19.53
2022-09-10T10:39:52.360Z,19.58
2022-09-10T10:42:24.137Z,19.58
2022-09-10T10:45:02.770Z,19.66
2022-09-10T10:47:45.448Z,19.65
2022-09-10T10:50:26.471Z,19.62
2022-09-10T10:53:14.511Z,19.60
2022-09-10T10:55:48.286Z,19.58
2022-09-10T10:58:30.296Z,19.56
2022-09-10T11:01:03.323Z,19.54
2022-09-10T11:03:36.592Z,19.64
2022-09-10T11:06:09.352Z,19.62
2022-09-10T11:08:42.439Z,19.62
2022-09-10T11:11:18.477Z,19.60
2022-09-10T11:13:52.201Z,19.67
2022-09-10T11:16:23.929Z,19.70
2022-09-10T11:18:55.069Z,19.75
2022-09-10T11:21:29.718Z,19.84
2022-09-10T11:24:02.634Z,19.91
2022-09-10T11:26:37.732Z,20.06
2022-09-10T11:29:22.241Z,20.16
2022-09-10T11:31:59.156Z,20.21
2022-09-10T11:34:32.636Z,20.26
2022-09-10T11:37:06.140Z,20.35
2022-09-10T11:39:36.428Z,20.40
2022-09-10T11:42:15.971Z,20.52
2022-09-10T11:44:55.964Z,20.70
2022-09-10T11:47:27.734Z,20.79
2022-09-10T11:50:01.193Z,20.78
2022-09-10T11:52:30.893Z,20.77
2022-09-10T11:54:59.410Z,20.67
2022-09-10T11:57:41.226Z,20.60
2022-09-10T12:00:16.925Z,20.67
2022-09-10T12:03:36.200Z,20.64
2022-09-10T12:06:08.084Z,20.63
2022-09-10T12:08:57.159Z,20.54
2022-09-10T12:11:32.078Z,20.45
2022-09-10T12:14:06.168Z,20.39
2022-09-10T12:16:39.319Z,20.34
2022-09-10T12:19:17.643Z,20.31
2022-09-10T12:21:52.275Z,20.40
2022-09-10T12:24:27.845Z,20.62
2022-09-10T12:26:56.425Z,20.93
2022-09-10T12:29:36.810Z,21.21
2022-09-10T12:32:29.775Z,21.44
2022-09-10T12:35:43.787Z,21.49
2022-09-10T12:38:48.731Z,21.28
2022-09-10T12:41:49.731Z,21.21
2022-09-10T12:44:49.431Z,21.11
2022-09-10T12:47:52.366Z,21.11
2022-09-10T12:50:46.176Z,21.06
2022-09-10T12:53:51.489Z,20.94
2022-09-10T12:56:40.654Z,20.92
2022-09-10T12:59:23.144Z,20.92
2022-09-10T13:01:52.948Z,20.91
2022-09-10T13:04:28.502Z,20.93
2022-09-10T13:07:00.038Z,20.93
2022-09-10T13:09:31.100Z,20.92
2022-09-10T13:12:04.512Z,20.95
2022-09-10T13:14:36.695Z,20.97
2022-09-10T13:17:06.391Z,20.96
2022-09-10T13:19:51.977Z,20.92
2022-09-10T13:22:53.272Z,20.91
2022-09-10T13:25:27.267Z,20.89
2022-09-10T13:27:55.312Z,20.89
2022-09-10T13:30:24.072Z,20.88
2022-09-10T13:32:56.693Z,20.89
2022-09-10T13:36:02.171Z,20.93
2022-09-10T13:38:53.969Z,20.93
2022-09-10T13:41:59.924Z,20.92
2022-09-10T13:44:53.621Z,20.94
2022-09-10T13:47:25.485Z,20.92
2022-09-10T13:49:59.341Z,20.96
2022-09-10T13:52:32.574Z,20.98
2022-09-10T13:55:01.691Z,21.01
2022-09-10T13:57:33.305Z,21.00
2022-09-10T14:00:07.011Z,20.97
2022-09-10T14:02:41.716Z,20.97
2022-09-10T14:05:30.627Z,20.97
2022-09-10T14:08:02.957Z,20.95
2022-09-10T14:10:32.196Z,20.93
2022-09-10T14:13:00.582Z,20.94
2022-09-10T14:15:34.019Z,20.96
2022-09-10T14:18:02.154Z,20.95
2022-09-10T14:20:34.336Z,20.91
2022-09-10T14:23:03.991Z,20.88
2022-09-10T14:25:33.799Z,20.88
2022-09-10T14:28:21.766Z,20.95
2022-09-10T14:30:50.663Z,20.91
2022-09-10T14:33:30.769Z,21.00
2022-09-10T14:36:14.531Z,21.06
2022-09-10T14:38:42.429Z,21.08
2022-09-10T14:41:19.791Z,21.16
2022-09-10T14:43:47.937Z,21.14
2022-09-10T14:46:49.843Z,21.15
2022-09-10T14:49:19.200Z,21.09
2022-09-10T14:51:48.166Z,21.07
2022-09-10T14:54:15.810Z,21.06
2022-09-10T14:56:46.051Z,21.05
2022-09-10T14:59:16.546Z,21.11
2022-09-10T15:01:45.854Z,21.02
2022-09-10T15:04:15.788Z,20.96
2022-09-10T15:06:44.931Z,20.95
2022-09-10T15:09:15.038Z,20.91
2022-09-10T15:11:50.587Z,20.88
2022-09-10T15:14:20.010Z,20.85
2022-09-10T15:16:48.231Z,20.86
2022-09-10T15:19:17.129Z,20.89
2022-09-10T15:21:44.776Z,20.92
2022-09-10T15:24:15.858Z,20.96
2022-09-10T15:26:43.892Z,20.99
2022-09-10T15:29:11.854Z,21.04
2022-09-10T15:31:40.228Z,21.08
2022-09-10T15:34:09.377Z,21.07
2022-09-10T15:36:39.836Z,21.06
2022-09-10T15:39:08.082Z,21.00
2022-09-10T15:41:42.566Z,20.97
2022-09-10T15:44:10.421Z,20.94
2022-09-10T15:46:45.097Z,20.92
2022-09-10T15:49:12.813Z,20.88
2022-09-10T15:51:41.240Z,20.86
2022-09-10T15:54:11.360Z,20.84
2022-09-10T15:56:40.999Z,20.84
2022-09-10T15:59:12.506Z,20.82
2022-09-10T16:01:40.189Z,20.82
2022-09-10T16:04:08.182Z,20.78
2022-09-10T16:06:39.196Z,20.78
2022-09-10T16:09:09.639Z,20.76
2022-09-10T16:11:40.763Z,20.76
2022-09-10T16:14:11.597Z,20.75
2022-09-10T16:16:40.837Z,20.73
2022-09-10T16:19:09.175Z,20.73
2022-09-10T16:21:39.213Z,20.71
2022-09-10T16:24:07.892Z,20.69
2022-09-10T16:26:37.342Z,20.69
2022-09-10T16:29:08.143Z,20.71
2022-09-10T16:31:39.065Z,20.65
2022-09-10T16:34:11.227Z,20.65
2022-09-10T16:36:40.330Z,20.65
2022-09-10T16:39:12.198Z,20.61
2022-09-10T16:41:40.973Z,20.60
2022-09-10T16:44:10.982Z,20.58
2022-09-10T16:46:39.054Z,20.57
2022-09-10T16:49:08.470Z,20.58
2022-09-10T16:51:36.852Z,20.56
2022-09-10T16:54:06.720Z,20.54
2022-09-10T16:56:36.808Z,20.53
2022-09-10T16:59:07.414Z,20.53
2022-09-10T17:01:36.680Z,20.48
2022-09-10T17:04:07.154Z,20.48
2022-09-10T17:06:36.660Z,20.50
2022-09-10T17:09:04.530Z,20.48
2022-09-10T17:11:34.510Z,20.46
2022-09-10T17:14:04.442Z,20.43
2022-09-10T17:16:34.391Z,20.41
2022-09-10T17:19:06.950Z,20.40
2022-09-10T17:21:36.231Z,20.39
2022-09-10T17:24:05.892Z,20.38
2022-09-10T17:26:34.895Z,20.36
2022-09-10T17:29:04.879Z,20.32
2022-09-10T17:31:32.519Z,20.33
2022-09-10T17:34:00.991Z,20.30
2022-09-10T17:36:30.568Z,20.24
2022-09-10T17:38:59.127Z,20.23
2022-09-10T17:41:28.039Z,20.21
2022-09-10T17:43:56.538Z,20.20
2022-09-10T17:46:24.238Z,20.16
2022-09-10T17:48:53.424Z,20.08
2022-09-10T17:51:22.743Z,20.04
2022-09-10T17:53:52.914Z,20.00
2022-09-10T17:56:20.770Z,19.96
2022-09-10T17:58:49.380Z,19.86
2022-09-10T18:01:23.607Z,19.83
2022-09-10T18:03:51.619Z,19.85
2022-09-10T18:06:19.235Z,19.85
2022-09-10T18:08:46.815Z,19.83
2022-09-10T18:11:18.637Z,19.85
2022-09-10T18:13:49.191Z,19.83
2022-09-10T18:16:18.615Z,19.81
2022-09-10T18:18:52.999Z,19.78
2022-09-10T18:21:23.933Z,19.68
2022-09-10T18:23:52.884Z,19.68
2022-09-10T18:26:23.991Z,19.64
2022-09-10T18:28:57.273Z,19.57
2022-09-10T18:31:26.134Z,19.53
2022-09-10T18:33:55.648Z,19.50
2022-09-10T18:36:25.011Z,19.51
2022-09-10T18:38:52.788Z,19.53
2022-09-10T18:41:24.112Z,19.54
2022-09-10T18:43:53.546Z,19.58
2022-09-10T18:46:23.539Z,19.56
2022-09-10T18:48:52.046Z,19.56
2022-09-10T18:51:21.941Z,19.57
2022-09-10T18:53:52.883Z,19.59
2022-09-10T18:56:24.322Z,19.55
2022-09-10T18:58:53.453Z,19.54
2022-09-10T19:01:21.274Z,19.54
2022-09-10T19:03:49.937Z,19.55
2022-09-10T19:06:19.386Z,19.58
2022-09-10T19:08:48.760Z,19.59
2022-09-10T19:11:18.888Z,19.54
2022-09-10T19:13:51.282Z,19.54
2022-09-10T19:16:20.468Z,19.48
2022-09-10T19:18:51.930Z,19.42
2022-09-10T19:21:20.152Z,19.32
2022-09-10T19:23:49.378Z,19.31
2022-09-10T19:26:17.721Z,19.29
2022-09-10T19:28:46.312Z,19.39
2022-09-10T19:31:17.172Z,19.55
2022-09-10T19:33:44.850Z,19.62
2022-09-10T19:36:15.313Z,19.72
2022-09-10T19:38:43.313Z,19.75
2022-09-10T19:41:13.080Z,19.68
2022-09-10T19:43:42.015Z,19.63
2022-09-10T19:46:11.588Z,19.56
2022-09-10T19:48:41.106Z,19.44
2022-09-10T19:51:10.875Z,19.31
2022-09-10T19:53:40.090Z,19.26
2022-09-10T19:56:10.293Z,19.22
2022-09-10T19:58:41.561Z,19.15
2022-09-10T20:01:10.584Z,19.17
2022-09-10T20:03:40.662Z,19.15
2022-09-10T20:06:10.449Z,19.15
2022-09-10T20:08:38.823Z,19.15
2022-09-10T20:11:07.614Z,19.15
2022-09-10T20:13:35.969Z,19.13
2022-09-10T20:16:04.697Z,19.16
2022-09-10T20:18:34.122Z,19.24
2022-09-10T20:21:12.723Z,19.30
2022-09-10T20:23:40.797Z,19.30
2022-09-10T20:26:11.200Z,19.26
2022-09-10T20:28:39.440Z,19.27
2022-09-10T20:31:08.820Z,19.31
2022-09-10T20:33:37.460Z,19.37
2022-09-10T20:36:07.013Z,19.32
2022-09-10T20:38:36.059Z,19.33
2022-09-10T20:41:04.308Z,19.34
2022-09-10T20:43:32.315Z,19.36
2022-09-10T20:45:59.918Z,19.37
2022-09-10T20:48:28.051Z,19.34
2022-09-10T20:50:57.236Z,19.34
2022-09-10T20:53:25.557Z,19.32
2022-09-10T20:56:02.425Z,19.28
2022-09-10T20:58:30.078Z,19.23
2022-09-10T21:01:05.909Z,19.21
2022-09-10T21:03:33.900Z,19.23
2022-09-10T21:06:03.519Z,19.24
2022-09-10T21:08:32.353Z,19.21
2022-09-10T21:11:05.546Z,19.24
2022-09-10T21:13:34.256Z,19.18
2022-09-10T21:16:09.667Z,19.14
2022-09-10T21:18:37.477Z,19.05
2022-09-10T21:21:09.831Z,19.05
2022-09-10T21:23:42.621Z,18.99
2022-09-10T21:26:11.786Z,18.99
2022-09-10T21:28:39.759Z,19.00
2022-09-10T21:31:09.320Z,18.98
2022-09-10T21:33:37.688Z,18.97
2022-09-10T21:36:07.449Z,19.00
2022-09-10T21:38:35.981Z,18.98
2022-09-10T21:41:05.372Z,18.93
2022-09-10T21:43:36.013Z,18.85
2022-09-10T21:46:05.553Z,18.85
2022-09-10T21:48:35.807Z,18.90
2022-09-10T21:51:05.752Z,18.92
2022-09-10T21:53:34.710Z,18.93
2022-09-10T21:56:04.344Z,18.98
2022-09-10T21:58:35.701Z,18.93
2022-09-10T22:01:03.910Z,18.87
2022-09-10T22:03:33.581Z,18.92
2022-09-10T22:06:09.460Z,18.95
2022-09-10T22:08:38.293Z,18.93
2022-09-10T22:11:07.554Z,18.92
2022-09-10T22:13:37.765Z,18.96
2022-09-10T22:16:06.739Z,18.96
2022-09-10T22:18:35.146Z,18.95
2022-09-10T22:21:03.162Z,18.96
2022-09-10T22:23:31.490Z,18.96
2022-09-10T22:26:05.135Z,18.89
2022-09-10T22:28:34.957Z,18.93
2022-09-10T22:31:10.062Z,19.00
2022-09-10T22:33:39.391Z,19.00
2022-09-10T22:36:12.098Z,18.98
2022-09-10T22:38:39.918Z,18.99
2022-09-10T22:41:10.203Z,18.99
2022-09-10T22:43:38.835Z,19.03
2022-09-10T22:46:08.412Z,19.05
2022-09-10T22:48:37.579Z,19.07
2022-09-10T22:51:05.502Z,19.09
2022-09-10T22:53:33.149Z,19.14
2022-09-10T22:56:02.136Z,19.10
2022-09-10T22:58:30.106Z,19.16
2022-09-10T23:01:02.960Z,19.11
2022-09-10T23:03:32.061Z,19.04
2022-09-10T23:06:06.072Z,18.94
2022-09-10T23:08:35.799Z,18.95
2022-09-10T23:11:12.261Z,18.94
2022-09-10T23:13:40.790Z,18.95
2022-09-10T23:16:13.067Z,19.00
2022-09-10T23:18:43.503Z,19.03
2022-09-10T23:21:11.864Z,19.06
2022-09-10T23:23:39.563Z,19.09
2022-09-10T23:26:10.117Z,19.08
2022-09-10T23:28:38.026Z,19.06
2022-09-10T23:31:10.549Z,19.10
2022-09-10T23:33:38.205Z,19.14
2022-09-10T23:36:07.639Z,19.15
2022-09-10T23:38:36.000Z,19.17
2022-09-10T23:41:03.792Z,19.18
2022-09-10T23:43:31.455Z,19.21
2022-09-10T23:45:59.733Z,19.23
2022-09-10T23:48:28.227Z,19.24
2022-09-10T23:50:56.058Z,19.24
2022-09-10T23:53:26.033Z,19.24
2022-09-10T23:55:54.351Z,19.21
2022-09-10T23:58:23.454Z,19.22
